Aérodrome :
LOGIN :

S'inscrire | Disclaimer

   EN    FR    IT 

 










Légende :    VFR   VFR Marginal   IFR   IFR Intensif   IFR Très Intensif
Visi : 
Plafond : 
>= 8 km
>= 3000ft
5 à 8 km
1000 à 3000 ft
1500m à 5 km
500 à 1000 ft
800 à 1500m
200 à 500 ft
< 800m
< 200 ft
Symboles :   Orages  Brouillard  Fortes neiges  Fortes précipitations  Vent > 20 kt
SIGMETs :   Divers  Orages  Givrage  Turbulence  Onde Orograph.  Cendres Volcan.






- Altitude de l'aérodrome : 423 ft
- Code IATA : PIS


LFBI - Poitiers

DERNIER METAR :
  • 041000Z AUTO VRB03KT 9999 FEW047 21/09 Q1019 NOSIG

METARs EXPIRÉS :
  • 040930Z AUTO VRB04KT CAVOK 21/09 Q1019 NOSIG
  • 040900Z AUTO 09003KT 030V180 CAVOK 20/11 Q1020 NOSIG
  • 040830Z AUTO VRB03KT CAVOK 19/11 Q1020 NOSIG
  • 040800Z AUTO VRB03KT CAVOK 18/10 Q1020 NOSIG
  • 040730Z AUTO 05005KT 010V090 CAVOK 17/10 Q1019 NOSIG

TAF TAF LFBI
Valide du 04 à 06h jusqu'au 05 à 06h UTC


040500Z 0406/0506 33006KT CAVOK



MET'MAP, la Météo Aéronautique d'un coup d'oeil ! - Copyright ORBIFLY Décembre 2007 - Disclaimer

ORBIFLY MET'MAP TEAM :

Programmation & Développement : Alexandra Zaïnal
Sur une idée originale de : Baudouin d'Aumeries
Assistance à la programmation : Marc-Olivier Méhu
Soutien technique & logistique : Manuel Goepfert

Contact : metmap@orbifly.com




SOURCES & CREDITS :

   NOAA